createdAt,value
2018-05-08T00:04:39.321Z,1015.6
2018-05-08T00:09:39.321Z,1015.5
2018-05-08T00:14:39.370Z,1015.5
2018-05-08T00:19:39.218Z,1015.4
2018-05-08T00:24:39.714Z,1015.3
2018-05-08T00:29:39.567Z,1015.3
2018-05-08T00:34:52.816Z,1015.3
2018-05-08T00:39:52.759Z,1015.3
2018-05-08T00:44:52.682Z,1015.3
2018-05-08T00:49:52.556Z,1015.4
2018-05-08T00:54:52.759Z,1015.3
2018-05-08T00:59:52.558Z,1015.3
2018-05-08T01:04:52.877Z,1015.3
2018-05-08T01:09:52.750Z,1015.3
2018-05-08T01:14:52.584Z,1015.2
2018-05-08T01:19:52.710Z,1015.3
2018-05-08T01:24:52.751Z,1015.3
2018-05-08T01:29:52.783Z,1015.2
2018-05-08T01:34:53.355Z,1015.2
2018-05-08T01:39:53.206Z,1015.2
2018-05-08T01:45:05.870Z,1015.2
2018-05-08T01:50:05.833Z,1015.2
2018-05-08T01:55:05.763Z,1015.1
2018-05-08T02:00:05.589Z,1015
2018-05-08T02:05:05.723Z,1015.1
2018-05-08T02:10:06.447Z,1015.1
2018-05-08T02:15:06.292Z,1015.1
2018-05-08T02:20:06.252Z,1015
2018-05-08T02:25:06.358Z,1015
2018-05-08T02:30:06.419Z,1014.9
2018-05-08T02:35:06.343Z,1014.8
2018-05-08T02:40:06.379Z,1014.8
2018-05-08T02:45:07.351Z,1014.7
2018-05-08T02:50:07.275Z,1014.7
2018-05-08T02:55:20.866Z,1014.7
2018-05-08T03:00:20.607Z,1014.8
2018-05-08T03:05:20.799Z,1014.8
2018-05-08T03:10:20.828Z,1014.8
2018-05-08T03:15:20.743Z,1014.8
2018-05-08T03:20:20.602Z,1014.8
2018-05-08T03:25:20.793Z,1014.8
2018-05-08T03:30:23.515Z,1014.8
2018-05-08T03:35:23.528Z,1014.8
2018-05-08T03:40:37.494Z,1014.7
2018-05-08T03:45:37.331Z,1014.6
2018-05-08T03:50:37.463Z,1014.6
2018-05-08T03:55:37.370Z,1014.7
2018-05-08T04:00:37.248Z,1014.6
2018-05-08T04:05:37.248Z,1014.8
2018-05-08T04:10:37.259Z,1014.9
2018-05-08T04:15:37.243Z,1014.9
2018-05-08T04:20:37.478Z,1015
2018-05-08T04:25:37.397Z,1014.7
2018-05-08T04:30:37.429Z,1014.6
2018-05-08T04:35:37.388Z,1014.6
2018-05-08T04:40:37.615Z,1014.6
2018-05-08T04:45:37.291Z,1014.5
2018-05-08T04:50:49.491Z,1014.5
2018-05-08T04:55:49.508Z,1014.5
2018-05-08T05:00:49.403Z,1014.4
2018-05-08T05:05:49.325Z,1014.5
2018-05-08T05:10:49.217Z,1014.4
2018-05-08T05:15:49.246Z,1014.3
2018-05-08T05:20:49.319Z,1014.2
2018-05-08T05:25:52.349Z,1014.1
2018-05-08T05:30:52.105Z,1013.9
2018-05-08T05:36:03.850Z,1013.7
2018-05-08T05:41:03.596Z,1013.7
2018-05-08T05:46:03.593Z,1013.7
2018-05-08T05:51:03.791Z,1013.6
2018-05-08T05:56:03.591Z,1013.4
2018-05-08T06:01:03.719Z,1013.3
2018-05-08T06:06:03.628Z,1013.3
2018-05-08T06:11:04.626Z,1013.1
2018-05-08T06:16:04.553Z,1013
2018-05-08T06:21:16.650Z,1012.8
2018-05-08T06:26:16.652Z,1012.8
2018-05-08T06:31:16.635Z,1012.8
2018-05-08T06:36:16.335Z,1012.9
2018-05-08T06:41:16.424Z,1012.9
2018-05-08T06:46:16.358Z,1012.9
2018-05-08T06:51:16.562Z,1013
2018-05-08T06:56:16.487Z,1012.9
2018-05-08T07:01:16.516Z,1012.8
2018-05-08T07:06:16.575Z,1012.8
2018-05-08T07:11:16.394Z,1012.8
2018-05-08T07:16:17.600Z,1012.8
2018-05-08T07:21:20.907Z,1012.9
2018-05-08T07:26:20.641Z,1012.8
2018-05-08T07:31:31.446Z,1012.8
2018-05-08T07:36:31.344Z,1012.6
2018-05-08T07:41:31.374Z,1012.8
2018-05-08T07:46:31.142Z,1012.8
2018-05-08T07:51:31.294Z,1012.6
2018-05-08T07:56:31.147Z,1012.7
2018-05-08T08:01:31.330Z,1012.5
2018-05-08T08:06:31.708Z,1012.4
2018-05-08T08:11:31.463Z,1012.5
2018-05-08T08:16:44.173Z,1012.4
2018-05-08T08:21:43.906Z,1012.4
2018-05-08T08:26:44.011Z,1012.4
2018-05-08T08:31:44.076Z,1012.4
2018-05-08T08:36:44.115Z,1012.1
2018-05-08T08:41:43.890Z,1012.1
2018-05-08T08:46:44.081Z,1012
2018-05-08T08:51:46.980Z,1012.1
2018-05-08T08:56:46.794Z,1012.1
2018-05-08T09:01:57.476Z,1012.1
2018-05-08T09:06:57.434Z,1012.1
2018-05-08T09:11:57.217Z,1011.8
2018-05-08T09:16:57.390Z,1011.7
2018-05-08T09:21:57.229Z,1011.7
2018-05-08T09:26:57.338Z,1011.7
2018-05-08T09:31:57.397Z,1011.5
2018-05-08T09:37:00.634Z,1011.6
2018-05-08T09:42:00.735Z,1011.5
2018-05-08T09:47:10.886Z,1011.3
2018-05-08T09:52:10.851Z,1011.1
2018-05-08T09:57:10.766Z,1011.1
2018-05-08T10:02:10.618Z,1011
2018-05-08T10:07:10.849Z,1011
2018-05-08T10:12:10.606Z,1011
2018-05-08T10:17:10.805Z,1010.9
2018-05-08T10:22:11.833Z,1010.8
2018-05-08T10:27:11.702Z,1010.8
2018-05-08T10:32:24.531Z,1010.7
2018-05-08T10:37:24.240Z,1010.5
2018-05-08T10:42:24.302Z,1010.6
2018-05-08T10:47:24.215Z,1010.4
2018-05-08T10:52:24.058Z,1010.2
2018-05-08T10:57:24.045Z,1010.3
2018-05-08T11:02:24.080Z,1010.2
2018-05-08T11:07:24.260Z,1010.1
2018-05-08T11:12:24.810Z,1010.1
2018-05-08T11:17:24.313Z,1009.7
2018-05-08T11:22:24.263Z,1009.7
2018-05-08T11:27:24.076Z,1009.7
2018-05-08T11:32:24.658Z,1009.7
2018-05-08T11:37:24.581Z,1009.6
2018-05-08T11:42:37.441Z,1009.4
2018-05-08T11:47:37.310Z,1009.3
2018-05-08T11:52:37.371Z,1009.4
2018-05-08T11:57:37.283Z,1009.2
2018-05-08T12:02:37.360Z,1009.2
2018-05-08T12:07:37.352Z,1009
2018-05-08T12:12:37.173Z,1009
2018-05-08T12:17:37.997Z,1009.1
2018-05-08T12:22:37.840Z,1008.8
2018-05-08T12:27:50.337Z,1008.8
2018-05-08T12:32:50.228Z,1008.9
2018-05-08T12:37:50.283Z,1008.8
2018-05-08T12:42:50.195Z,1008.8
2018-05-08T12:47:50.207Z,1008.9
2018-05-08T12:52:50.065Z,1008.6
2018-05-08T12:57:50.172Z,1008.8
2018-05-08T13:02:50.079Z,1009
2018-05-08T13:07:50.249Z,1009
2018-05-08T13:12:50.231Z,1008.7
2018-05-08T13:17:50.217Z,1008.7
2018-05-08T13:22:50.279Z,1008.7
2018-05-08T13:27:50.829Z,1008.5
2018-05-08T13:32:51.198Z,1008.6
2018-05-08T13:38:03.260Z,1008.5
2018-05-08T13:43:03.154Z,1008.6
2018-05-08T13:48:04.475Z,1008.8
2018-05-08T13:53:03.156Z,1008.7
2018-05-08T13:58:03.212Z,1008.6
2018-05-08T14:03:03.241Z,1008.5
2018-05-08T14:08:03.181Z,1008.6
2018-05-08T14:13:04.916Z,1008.4
2018-05-08T14:18:04.297Z,1008.4
2018-05-08T14:23:04.422Z,1008.5
2018-05-08T14:28:04.409Z,1008.6
2018-05-08T14:33:04.446Z,1008.7
2018-05-08T14:38:06.355Z,1008.7
2018-05-08T14:43:06.090Z,1008.6
2018-05-08T14:48:20.036Z,1008.6
2018-05-08T14:53:18.926Z,1008.6
2018-05-08T14:58:18.983Z,1008.6
2018-05-08T15:03:18.816Z,1008.5
2018-05-08T15:08:18.777Z,1008.4
2018-05-08T15:13:18.979Z,1008.3
2018-05-08T15:18:19.041Z,1008.3
2018-05-08T15:23:19.378Z,1008
2018-05-08T15:28:19.295Z,1008
2018-05-08T15:33:31.361Z,1007.9
2018-05-08T15:38:31.098Z,1007.8
2018-05-08T15:43:31.247Z,1007.8
2018-05-08T15:48:31.286Z,1007.8
2018-05-08T15:53:31.340Z,1007.7
2018-05-08T15:58:31.127Z,1007.7
2018-05-08T16:03:31.137Z,1007.7
2018-05-08T16:08:33.236Z,1007.6
2018-05-08T16:13:33.154Z,1007.7
2018-05-08T16:18:44.112Z,1007.7
2018-05-08T16:23:42.919Z,1007.7
2018-05-08T16:28:44.922Z,1007.6
2018-05-08T16:33:42.970Z,1007.6
2018-05-08T16:38:43.611Z,1007.5
2018-05-08T16:43:45.338Z,1007.5
2018-05-08T16:48:44.506Z,1007.5
2018-05-08T16:53:44.982Z,1007.4
2018-05-08T16:58:45.019Z,1007.5
2018-05-08T17:03:44.361Z,1007.5
2018-05-08T17:08:44.443Z,1007.4
2018-05-08T17:13:44.686Z,1007.6
2018-05-08T17:18:46.408Z,1007.6
2018-05-08T17:23:45.961Z,1007.6
2018-05-08T17:28:58.046Z,1007.8
2018-05-08T17:33:57.734Z,1007.9
2018-05-08T17:38:57.700Z,1008.1
2018-05-08T17:43:57.924Z,1008.3
2018-05-08T17:48:57.771Z,1008.6
2018-05-08T17:53:57.743Z,1008.8
2018-05-08T17:58:57.729Z,1008.8
2018-05-08T18:03:57.824Z,1009
2018-05-08T18:08:57.690Z,1009
2018-05-08T18:14:10.504Z,1009
2018-05-08T18:19:10.112Z,1009.1
2018-05-08T18:24:10.275Z,1009.1
2018-05-08T18:29:11.692Z,1009.1
2018-05-08T18:34:10.055Z,1009.1
2018-05-08T18:39:10.020Z,1009.1
2018-05-08T18:44:10.053Z,1009.2
2018-05-08T18:49:10.067Z,1009.3
2018-05-08T18:54:10.195Z,1009.3
2018-05-08T18:59:23.594Z,1009.4
2018-05-08T19:04:23.258Z,1009.3
2018-05-08T19:09:23.576Z,1009.3
2018-05-08T19:14:23.300Z,1009.4
2018-05-08T19:19:23.285Z,1009.4
2018-05-08T19:24:23.300Z,1009.6
2018-05-08T19:29:23.496Z,1009.6
2018-05-08T19:34:26.642Z,1009.5
2018-05-08T19:39:26.428Z,1009.5
2018-05-08T19:44:35.580Z,1009.4
2018-05-08T19:49:35.338Z,1009.4
2018-05-08T19:54:35.557Z,1009.4
2018-05-08T19:59:35.336Z,1009.4
2018-05-08T20:04:35.524Z,1009.4
2018-05-08T20:09:35.479Z,1009.4
2018-05-08T20:14:35.488Z,1009.3
2018-05-08T20:19:35.299Z,1009.2
2018-05-08T20:24:35.318Z,1009.1
2018-05-08T20:29:47.124Z,1009.2
2018-05-08T20:34:47.131Z,1009.3
2018-05-08T20:39:46.865Z,1009.4
2018-05-08T20:44:46.919Z,1009.3
2018-05-08T20:49:47.104Z,1009.2
2018-05-08T20:54:47.035Z,1009.2
2018-05-08T20:59:46.865Z,1009.1
2018-05-08T21:04:47.386Z,1009.1
2018-05-08T21:09:47.308Z,1009.1
2018-05-08T21:14:59.419Z,1009
2018-05-08T21:19:59.150Z,1009
2018-05-08T21:24:59.113Z,1009
2018-05-08T21:29:59.160Z,1009.2
2018-05-08T21:34:59.176Z,1009.2
2018-05-08T21:40:00.316Z,1009.1
2018-05-08T21:44:59.155Z,1009
2018-05-08T21:49:59.190Z,1009
2018-05-08T21:54:59.398Z,1009
2018-05-08T22:00:11.397Z,1009
2018-05-08T22:05:10.986Z,1009
2018-05-08T22:10:11.031Z,1009
2018-05-08T22:15:11.050Z,1009
2018-05-08T22:20:11.403Z,1009.1
2018-05-08T22:25:11.040Z,1009
2018-05-08T22:30:11.199Z,1009
2018-05-08T22:35:11.272Z,1009
2018-05-08T22:40:11.467Z,1009.1
2018-05-08T22:45:23.444Z,1009.2
2018-05-08T22:50:23.325Z,1009.1
2018-05-08T22:55:23.346Z,1009.1
2018-05-08T23:00:23.175Z,1009
2018-05-08T23:05:23.632Z,1008.9
2018-05-08T23:10:23.431Z,1009
2018-05-08T23:15:23.575Z,1009
2018-05-08T23:20:23.441Z,1008.9
2018-05-08T23:25:23.646Z,1008.9
2018-05-08T23:30:35.514Z,1008.9
2018-05-08T23:35:35.335Z,1008.7
2018-05-08T23:40:35.184Z,1008.8
2018-05-08T23:45:35.223Z,1008.8
2018-05-08T23:50:35.214Z,1008.8
2018-05-08T23:55:35.445Z,1008.8
